This is the latest recevied weather packets stored in our database for station/object N2QDK-2. If no packets are shown the sender has not sent any weather packets the latest 10 day(s).
| Time | Temp. | Humidity | Pressure | Rain* | Wind** | Luminosity | Snow |
|---|---|---|---|---|---|---|---|
| 1777861517 | 12.22° C | 60% | 1009.1 hPa | 0 mm | - | - | - |
| 1777860917 | 11.67° C | 61% | 1009.2 hPa | 0 mm | - | - | - |
| 1777860317 | 11.67° C | 64% | 1009.2 hPa | 0 mm | - | - | - |
| 1777859716 | 11.11° C | 68% | 1009.2 hPa | 0 mm | - | - | - |
| 1777859117 | 10.56° C | 70% | 1009.1 hPa | 0 mm | - | - | - |
| 1777858516 | 10° C | 75% | 1009.1 hPa | 0 mm | - | - | - |
| 1777857917 | 10° C | 79% | 1009.3 hPa | 0 mm | - | - | - |
| 1777857316 | 9.44° C | 86% | 1009.3 hPa | 0.25 mm | - | - | - |
| 1777856716 | 9.44° C | 85% | 1009.6 hPa | 0.25 mm | - | - | - |
| 1777856116 | 9.44° C | 84% | 1009.5 hPa | 0.25 mm | - | - | - |
| 1777855516 | 9.44° C | 83% | 1009.5 hPa | 0.25 mm | - | - | - |
| 1777854917 | 10° C | 83% | 1009.8 hPa | 0.25 mm | - | - | - |
| 1777854316 | 10.56° C | 80% | 1010 hPa | 0.25 mm | - | - | - |
| 1777853717 | 10.56° C | 74% | 1010 hPa | 0 mm | - | - | - |
| 1777853116 | 10.56° C | 73% | 1009.8 hPa | 0 mm | - | - | - |
| 1777852516 | 10.56° C | 72% | 1009.6 hPa | 0 mm | - | - | - |
| 1777851916 | 11.11° C | 71% | 1009.6 hPa | 0 mm | - | - | - |
| 1777851316 | 11.67° C | 67% | 1009.7 hPa | 0 mm | - | - | - |
| 1777850716 | 12.22° C | 60% | 1009.4 hPa | 0 mm | - | - | - |
| 1777850116 | 12.78° C | 56% | 1009.3 hPa | 0 mm | - | - | - |
| 1777849517 | 12.78° C | 53% | 1009 hPa | 0 mm | - | - | - |
| 1777848917 | 12.78° C | 51% | 1009 hPa | 0 mm | - | - | - |
| 1777848316 | 13.33° C | 50% | 1008.8 hPa | 0 mm | - | - | - |
| 1777847716 | 13.33° C | 48% | 1008.8 hPa | 0 mm | - | - | - |
| 1777847116 | 13.33° C | 49% | 1008.8 hPa | 0 mm | - | - | - |
* Rain latest hour (hover to see other rain measurements)
** Current wind speed in m/s (hover to see current wind gust speed)